CheckWX is a tool to help pilots better visualize weather data.  It is not intended as a substitute for an official pre-flight weather briefing.

13:07:59 UTC

KAVP TAF
Wilkes-Barre / Scranton International Airport
Wilkes-Barre/Scranton, Pennsylvania, USA
KAVP 181139Z 1812/1912 00000KT P6SM BKN200 FM181500 22006KT P6SM SCT050 BKN200 FM190000 18003KT P6SM BKN200

Aug-18@
12:00 UTC

Aug-18 @ 12:00 UTC

Aug-18@
15:00 UTC

Aug-18 @ 15:00 UTC

KAVP 181139Z 1812/1912 00000KT P6SM BKN200
Cloud Levels
  • Broken at 20,000' AGL

Aug-18@
15:00 UTC

Aug-18 @ 15:00 UTC

Aug-19@
00:00 UTC

Aug-19 @ 00:00 UTC

FM181500 22006KT P6SM SCT050 BKN200

From

From Standard forecast or significant change

Wind
  • 220° at 6 KTS
Cloud Levels
  • Scattered at 5,000' AGL
  • Broken at 20,000' AGL

Aug-19@
00:00 UTC

Aug-19 @ 00:00 UTC

Aug-19@
12:00 UTC

Aug-19 @ 12:00 UTC

FM190000 18003KT P6SM BKN200

From

From Standard forecast or significant change

Wind
  • 180° at 3 KTS
Cloud Levels
  • Broken at 20,000' AGL